Copalis Beach, Washington
Current Conditions -  °F | °C
As of 12:03 AM on Friday 31 Oct 2014 (Local Time) from KHQM Reporting Station
Haze Haze  
Wind Chill: 53°   Ceiling: Unl
Heat Index: 53°   Visibility: 1mi
Dew Point: 53°   Wind: 0mph
Humidity: 100%   Direction: NA
Pressure: 29.76"   Gusts: NA
Location:  47.11°N, 124.18°W
Report Text: KHQM 310703Z AUTO 00000KT 1SM BR FEW004 SCT014 12/12 A2976 RMK AO2 T01170117
Loading
Personal Weather Stations






























Interactive Weather Map
Tropical Storm Tracking
New forecast layout! Learn more

10-Day Weather Forecast

Advertisements
Track Severe Weather on mobile